Delray Beach, FL (33444)

10:56 AM EDT on July 26, 2016 (GMT -0400)
Lake Ida - Garden House | | Change Station

Elev 0 ft 26.48 °N, 80.07 °W | Updated 10 minutes ago

Clear
Clear
92.8 °F
Feels Like 106 °F
N
2.2
Wind Variable Wind from ESE

Today
High -- | Low -- °F
--% Chance of Precip.
Yesterday
High -- | Low -- °F
Precip. -- in
Pressure 30.10 in
Visibility 10.0 miles
Clouds Clear
Heat Index 106 °F
Dew Point 76 °F
Humidity 59%
Rainfall 0.02 in
Snow Depth Not available.
6:42 AM 8:10 PM
Waning Gibbous, 54% visible
METAR KPMP 261453Z 10009KT 10SM CLR 32/24 A3009 RMK AO2 SLP191 T03170239 52007
Pressure 30.10 in
Visibility 10.0 miles
Clouds Clear
Heat Index 106 °F
Dew Point 76 °F
Humidity 59%
Rainfall 0.02 in
Snow Depth Not available.
6:42 AM 8:10 PM
Waning Gibbous, 54% visible
METAR KPMP 261453Z 10009KT 10SM CLR 32/24 A3009 RMK AO2 SLP191 T03170239 52007

10-Day Weather Forecast

Almanac

Astronomy

Jul. 26, 2016 Rise Set
Actual Time
Civil Twilight
Nautical Twilight
Astronomical Twilight
Moon
Length of Visible Light
Length of Day
Tomorrow will be .
, % of the Moon is Illuminated

Today's Extremes

State Highs State Lows

Community

WunderPhotos

Upload Photos

1,927,594 photos uploaded!

WunderBlog® & News

Nearby

Air Quality

  Air Quality AQ Index Pollutant
Not available.

Snow Depth

Station Depth Elevation

Earthquake Activity

City Distance Mag. Time & Date
Minimum magnitude displayed is 2.5.

Coastal Water Temperatures

Place Temperature

Stations

Nearby Weather Stations

Station Location Temp. Windchill Dew Point Humidity Wind Precip. Elev Updated Type
                   

Watches & Warnings

There are currently no watches in effect.